Time;durP1;ratioP1;P1;durP2;ratioP2;P2;SDS_P1;SDS_P2;PMS_P1;PMS_P2;Temp;Humidity;BMP_temperature;BMP_pressure;BME280_temperature;BME280_humidity;BME280_pressure;Samples;Min_cycle;Max_cycle;Signal;HPM_P1;HPM_P2
2022/03/29 00:02:41;;;;;;;35.77;15.33;;;;;;;8.31;58.12;98356.95;2188782;81;21096;-62
2022/03/29 00:05:43;;;;;;;37.10;14.70;;;;;;;8.38;58.16;98354.83;2188901;81;21048;-62
2022/03/29 00:08:44;;;;;;;35.98;14.20;;;;;;;8.44;58.93;98350.09;2188834;81;20965;-62
2022/03/29 00:11:46;;;;;;;36.05;15.05;;;;;;;8.51;59.36;98351.05;2188633;81;20980;-62
2022/03/29 00:14:47;;;;;;;36.38;15.23;;;;;;;8.59;59.35;98343.12;2188681;81;21503;-62
2022/03/29 00:17:49;;;;;;;34.15;15.18;;;;;;;8.63;59.16;98346.37;2188702;81;20956;-62
2022/03/29 00:20:50;;;;;;;38.08;16.10;;;;;;;8.60;58.48;98344.77;2188503;81;21015;-62
2022/03/29 00:23:51;;;;;;;41.05;17.07;;;;;;;8.56;58.90;98338.08;2188609;81;21016;-62
2022/03/29 00:26:53;;;;;;;40.05;17.37;;;;;;;8.50;58.65;98326.66;2188712;81;21003;-62
2022/03/29 00:29:54;;;;;;;39.85;17.02;;;;;;;8.42;57.66;98324.94;2188596;81;21055;-62
2022/03/29 00:32:56;;;;;;;39.33;16.10;;;;;;;8.40;57.68;98316.36;2188852;81;20976;-62
2022/03/29 00:35:57;;;;;;;41.63;17.25;;;;;;;8.38;58.27;98315.63;2188520;81;21032;-62
2022/03/29 00:38:59;;;;;;;39.15;16.57;;;;;;;8.32;58.74;98305.91;2188828;81;21447;-62
2022/03/29 00:42:00;;;;;;;40.03;16.00;;;;;;;8.30;57.72;98297.33;2188845;81;20968;-62
2022/03/29 00:45:02;;;;;;;40.35;16.95;;;;;;;8.36;57.47;98293.52;2189109;81;20953;-62
2022/03/29 00:48:03;;;;;;;40.43;17.23;;;;;;;8.39;57.38;98286.79;2188706;81;21086;-62
2022/03/29 00:51:05;;;;;;;41.77;17.27;;;;;;;8.43;57.48;98277.83;2188670;81;21063;-62
2022/03/29 00:54:07;;;;;;;38.40;17.02;;;;;;;8.38;57.27;98281.18;2188663;81;21524;-62
2022/03/29 00:57:09;;;;;;;38.83;16.87;;;;;;;8.37;57.31;98273.44;2188884;81;21047;-62
2022/03/29 01:00:11;;;;;;;38.48;17.00;;;;;;;8.29;57.40;98281.27;2188730;81;21103;-62
2022/03/29 01:03:12;;;;;;;40.00;17.23;;;;;;;8.33;57.42;98279.30;2188805;81;20996;-62
2022/03/29 01:06:13;;;;;;;40.83;17.70;;;;;;;8.40;57.53;98283.22;2188600;81;21061;-62
2022/03/29 01:09:15;;;;;;;42.93;18.10;;;;;;;8.32;57.42;98285.48;2188772;81;20968;-62
2022/03/29 01:12:16;;;;;;;49.80;19.15;;;;;;;8.28;57.56;98288.73;2188572;81;21032;-62
2022/03/29 01:15:18;;;;;;;42.40;19.42;;;;;;;8.33;58.00;98291.05;2188500;81;21015;-62
2022/03/29 01:18:20;;;;;;;40.70;18.57;;;;;;;8.38;58.29;98294.72;2188197;81;21088;-62
2022/03/29 01:21:21;;;;;;;47.10;19.55;;;;;;;8.35;58.18;98289.21;2188961;81;21015;-62
2022/03/29 01:24:23;;;;;;;43.95;18.65;;;;;;;8.35;58.33;98289.21;2188579;81;20984;-62
2022/03/29 01:27:24;;;;;;;41.02;17.92;;;;;;;8.33;58.25;98284.08;2188911;81;21507;-62
2022/03/29 01:30:26;;;;;;;41.18;18.20;;;;;;;8.33;58.25;98274.93;2188940;81;21028;-62
2022/03/29 01:33:27;;;;;;;43.20;18.60;;;;;;;8.40;58.59;98287.62;2188751;81;21463;-62
2022/03/29 01:36:29;;;;;;;39.80;18.67;;;;;;;8.37;59.20;98285.20;2188578;81;21048;-62
2022/03/29 01:39:30;;;;;;;43.02;18.12;;;;;;;8.38;58.83;98276.43;2188744;81;20988;-62
2022/03/29 01:42:32;;;;;;;40.63;17.40;;;;;;;8.45;58.80;98270.76;2188961;81;21008;-62
2022/03/29 01:45:33;;;;;;;46.10;20.05;;;;;;;8.54;59.01;98274.58;2188541;81;21047;-62
2022/03/29 01:48:35;;;;;;;43.35;17.77;;;;;;;8.57;59.09;98264.41;2188897;81;20940;-62
2022/03/29 01:51:36;;;;;;;42.58;18.60;;;;;;;8.59;59.26;98262.08;2188759;81;20972;-62
2022/03/29 01:54:38;;;;;;;41.85;17.65;;;;;;;8.62;59.31;98250.56;2189111;81;20957;-62
2022/03/29 01:57:40;;;;;;;40.63;17.05;;;;;;;8.64;59.26;98241.70;2188744;81;20984;-62
2022/03/29 02:00:41;;;;;;;39.33;17.42;;;;;;;8.65;60.76;98246.48;2189001;81;21467;-62
2022/03/29 02:03:43;;;;;;;40.65;17.02;;;;;;;8.62;60.43;98247.50;2188955;81;20993;-62
2022/03/29 02:06:45;;;;;;;40.83;17.73;;;;;;;8.62;60.53;98246.64;2189196;81;20988;-62
2022/03/29 02:09:46;;;;;;;40.50;17.70;;;;;;;8.63;60.70;98249.19;2188973;81;21017;-62
2022/03/29 02:12:48;;;;;;;43.45;18.42;;;;;;;8.63;61.91;98250.50;2188790;81;21557;-62
2022/03/29 02:15:49;;;;;;;41.63;18.50;;;;;;;8.55;62.92;98265.81;2188871;81;21013;-62
2022/03/29 02:18:51;;;;;;;42.87;18.13;;;;;;;8.54;62.34;98248.92;2189168;81;21487;-62
2022/03/29 02:21:53;;;;;;;41.45;18.87;;;;;;;8.53;62.32;98246.75;2188447;81;20985;-62
2022/03/29 02:24:54;;;;;;;40.45;18.02;;;;;;;8.57;61.98;98239.58;2189071;81;21530;-62
2022/03/29 02:27:56;;;;;;;43.13;18.48;;;;;;;8.53;61.33;98245.44;2188946;81;20976;-62
2022/03/29 02:30:57;;;;;;;39.73;17.73;;;;;;;8.44;61.23;98230.31;2189196;81;21510;-62
2022/03/29 02:33:59;;;;;;;39.18;18.85;;;;;;;8.38;61.42;98226.30;2189102;81;21033;-62
2022/03/29 02:37:00;;;;;;;44.00;18.73;;;;;;;8.40;61.20;98221.80;2188655;81;21004;-62
2022/03/29 02:40:03;;;;;;;50.67;24.57;;;;;;;8.44;61.36;98214.19;2188963;81;21035;-62
2022/03/29 02:43:05;;;;;;;47.98;21.77;;;;;;;8.53;61.35;98218.48;2188619;81;21048;-62
2022/03/29 02:46:07;;;;;;;40.73;20.08;;;;;;;8.53;61.14;98211.94;2188917;81;21040;-62
2022/03/29 02:49:09;;;;;;;40.63;18.60;;;;;;;8.49;60.77;98200.82;2188900;81;21448;-61
2022/03/29 02:52:11;;;;;;;;;;;;;;;8.39;60.83;98191.85;2191351;81;20996;-61
2022/03/29 02:55:13;;;;;;;40.98;18.32;;;;;;;8.33;61.01;98199.59;2188925;81;20100;-61
2022/03/29 02:58:14;;;;;;;44.63;19.90;;;;;;;8.35;61.15;98199.50;2188618;81;20964;-61
2022/03/29 03:01:16;;;;;;;43.70;18.80;;;;;;;8.32;60.73;98196.64;2188842;81;21024;-62
2022/03/29 03:04:17;;;;;;;45.17;19.98;;;;;;;8.26;60.89;98189.16;2188496;81;21028;-61
2022/03/29 03:07:20;;;;;;;42.33;19.65;;;;;;;8.17;61.18;98186.64;2188513;81;21005;-62
2022/03/29 03:10:21;;;;;;;41.70;19.00;;;;;;;8.08;61.21;98191.14;2188835;81;21083;-62
2022/03/29 03:13:22;;;;;;;40.67;18.57;;;;;;;7.98;60.93;98185.63;2189179;81;20984;-62
2022/03/29 03:16:24;;;;;;;43.45;18.75;;;;;;;7.79;60.82;98189.34;2178821;81;20993;-62
2022/03/29 03:19:25;;;;;;;48.50;21.02;;;;;;;7.60;60.86;98186.99;2172578;81;21033;-62
2022/03/29 03:22:27;;;;;;;40.78;18.20;;;;;;;7.49;61.86;98188.56;2172282;82;21040;-62
2022/03/29 03:25:28;;;;;;;50.23;20.82;;;;;;;7.51;61.74;98190.60;2172484;81;21523;-61
2022/03/29 03:28:30;;;;;;;47.93;20.97;;;;;;;7.53;61.93;98188.73;2172184;81;20973;-61
2022/03/29 03:31:31;;;;;;;55.17;24.18;;;;;;;7.48;61.81;98184.27;2172452;81;21475;-62
2022/03/29 03:34:33;;;;;;;53.08;23.70;;;;;;;7.39;62.12;98181.73;2172254;81;20950;-62
2022/03/29 03:37:34;;;;;;;52.88;24.60;;;;;;;7.33;62.83;98192.05;2172175;81;21053;-62
2022/03/29 03:40:36;;;;;;;59.13;24.82;;;;;;;7.40;62.99;98188.63;2172381;81;21033;-61
2022/03/29 03:43:38;;;;;;;51.75;23.77;;;;;;;7.35;62.66;98173.70;2171943;81;21579;-62
2022/03/29 03:46:40;;;;;;;55.85;26.25;;;;;;;7.25;62.92;98178.13;2172235;81;21004;-62
2022/03/29 03:49:41;;;;;;;68.22;29.02;;;;;;;7.27;63.31;98165.02;2172173;81;21073;-62
2022/03/29 03:52:43;;;;;;;80.90;34.47;;;;;;;7.31;63.28;98164.37;2172404;82;21029;-62
2022/03/29 03:55:44;;;;;;;87.10;40.27;;;;;;;7.27;63.30;98156.72;2172271;81;21616;-62
2022/03/29 03:58:46;;;;;;;83.92;37.78;;;;;;;7.24;63.30;98166.03;2172303;81;21033;-62
2022/03/29 04:01:48;;;;;;;78.37;34.20;;;;;;;7.22;63.28;98158.75;2172284;81;21080;-61
2022/03/29 04:04:49;;;;;;;79.85;36.08;;;;;;;7.24;63.65;98159.96;2171768;81;21317;-62
2022/03/29 04:07:51;;;;;;;57.97;25.57;;;;;;;7.26;63.53;98169.38;2172445;82;21044;-61
2022/03/29 04:10:52;;;;;;;55.20;24.40;;;;;;;7.00;63.84;98166.98;2172063;81;21032;-62
2022/03/29 04:13:54;;;;;;;51.85;23.73;;;;;;;6.76;64.60;98163.98;2172305;81;21052;-62
2022/03/29 04:16:56;;;;;;;57.10;26.40;;;;;;;6.72;65.29;98172.45;2183054;81;21052;-62
2022/03/29 04:19:57;;;;;;;65.72;27.67;;;;;;;6.72;65.09;98172.45;2188976;81;21452;-62
2022/03/29 04:22:59;;;;;;;62.10;26.80;;;;;;;6.86;65.00;98185.99;2188720;81;21001;-62
2022/03/29 04:26:01;;;;;;;57.20;26.30;;;;;;;6.70;65.06;98185.19;2189005;81;21012;-62
2022/03/29 04:29:02;;;;;;;51.53;22.50;;;;;;;6.63;64.85;98196.88;2188898;81;20973;-62
2022/03/29 04:32:04;;;;;;;44.58;20.00;;;;;;;6.61;65.47;98196.95;2188929;81;21050;-62
2022/03/29 04:35:05;;;;;;;45.95;20.35;;;;;;;6.48;66.56;98197.23;2188599;81;20988;-61
2022/03/29 04:38:07;;;;;;;50.15;21.65;;;;;;;6.38;66.48;98196.91;2188817;81;21091;-61
2022/03/29 04:41:09;;;;;;;49.98;22.60;;;;;;;6.41;68.07;98194.13;2188575;81;21072;-62
2022/03/29 04:44:11;;;;;;;48.17;21.55;;;;;;;6.55;66.77;98187.70;2188540;81;21040;-61
2022/03/29 04:47:12;;;;;;;49.20;21.97;;;;;;;6.72;66.33;98180.27;2188680;81;21051;-62
2022/03/29 04:50:14;;;;;;;47.73;21.23;;;;;;;6.90;66.02;98186.68;2188919;81;21076;-62
2022/03/29 04:53:15;;;;;;;54.58;22.85;;;;;;;6.99;65.82;98187.45;2188966;81;21000;-62
2022/03/29 04:56:17;;;;;;;47.93;21.95;;;;;;;7.03;65.66;98189.44;2188682;81;21024;-62
2022/03/29 04:59:19;;;;;;;50.50;23.60;;;;;;;7.11;65.67;98191.12;2188586;81;21048;-62
2022/03/29 05:02:21;;;;;;;50.70;23.12;;;;;;;7.20;65.58;98189.31;2188891;81;21035;-61
2022/03/29 05:05:22;;;;;;;55.67;27.00;;;;;;;7.28;65.49;98185.80;2188958;81;21531;-62
2022/03/29 05:08:24;;;;;;;68.57;32.40;;;;;;;7.37;65.63;98184.88;2188820;81;21016;-61
2022/03/29 05:11:25;;;;;;;65.75;28.95;;;;;;;7.50;65.46;98191.52;2189032;81;21555;-61
2022/03/29 05:14:27;;;;;;;58.28;26.17;;;;;;;7.62;65.47;98192.95;2188911;81;20977;-62
2022/03/29 05:17:31;;;;;;;45.88;21.93;;;;;;;7.71;65.35;98192.87;2176296;81;21571;-61
2022/03/29 05:20:32;;;;;;;54.90;24.55;;;;;;;7.75;65.55;98183.09;2161900;82;21522;-61
2022/03/29 05:23:33;;;;;;;52.85;25.45;;;;;;;7.81;66.02;98186.64;2172352;81;21031;-61
2022/03/29 05:26:35;;;;;;;51.95;24.98;;;;;;;7.82;66.16;98187.02;2172025;82;21028;-61
2022/03/29 05:29:36;;;;;;;55.45;24.52;;;;;;;7.82;66.34;98194.86;2172326;81;21045;-62
2022/03/29 05:32:38;;;;;;;51.97;24.47;;;;;;;7.80;66.31;98200.17;2172445;81;20938;-61
2022/03/29 05:35:39;;;;;;;53.33;25.37;;;;;;;7.78;66.22;98203.31;2172621;82;21076;-61
2022/03/29 05:38:48;;;;;;;58.45;26.48;;;;;;;7.84;66.16;98204.72;2161144;82;20961;-62
2022/03/29 05:41:46;;;;;;;45.88;21.73;;;;;;;7.89;66.34;98210.52;2161868;82;20997;-62
2022/03/29 05:44:47;;;;;;;49.18;22.02;;;;;;;7.96;66.01;98214.45;2172549;81;21504;-61
2022/03/29 05:50:52;;;;;;;42.30;18.82;;;;;;;7.81;67.56;98234.94;2161877;82;20998;-61
2022/03/29 05:53:54;;;;;;;45.63;20.57;;;;;;;7.69;66.87;98231.29;2172684;81;21500;-61
2022/03/29 05:56:56;;;;;;;42.53;18.77;;;;;;;7.65;67.42;98239.39;2172353;81;20982;-62
2022/03/29 05:59:57;;;;;;;40.88;18.65;;;;;;;7.61;68.13;98242.19;2172522;81;21055;-61
2022/03/29 06:02:59;;;;;;;39.53;18.42;;;;;;;7.69;68.53;98255.26;2172145;81;20988;-61
2022/03/29 06:06:00;;;;;;;43.68;19.27;;;;;;;7.78;68.79;98252.09;2172232;81;21607;-62
2022/03/29 06:09:02;;;;;;;44.18;19.75;;;;;;;7.91;67.87;98243.08;2172228;81;20982;-62
2022/03/29 06:12:04;;;;;;;45.40;20.12;;;;;;;7.91;67.90;98243.91;2172473;81;21084;-61
2022/03/29 06:15:06;;;;;;;;;;;;;;;7.98;67.81;98244.39;2175003;81;21103;-61
2022/03/29 06:18:08;;;;;;;43.75;19.48;;;;;;;8.00;67.41;98246.43;2186757;81;20092;-61
2022/03/29 06:21:10;;;;;;;42.65;19.15;;;;;;;8.08;67.86;98250.73;2188608;81;21045;-61
2022/03/29 06:24:12;;;;;;;41.90;18.02;;;;;;;8.20;66.90;98250.45;2189058;81;21487;-62
2022/03/29 06:27:13;;;;;;;41.07;18.13;;;;;;;8.35;67.55;98259.16;2188895;81;20937;-61
2022/03/29 06:30:15;;;;;;;38.58;15.85;;;;;;;8.42;67.05;98244.78;2189060;81;21467;-61
2022/03/29 06:33:16;;;;;;;36.77;16.55;;;;;;;8.48;65.61;98257.50;2188790;81;21018;-62
2022/03/29 06:36:18;;;;;;;37.80;15.85;;;;;;;8.43;66.06;98249.53;2188693;81;21040;-61
2022/03/29 06:39:20;;;;;;;31.93;14.35;;;;;;;8.48;66.24;98254.88;2188850;81;21028;-61
2022/03/29 06:42:21;;;;;;;32.28;14.25;;;;;;;8.62;65.47;98264.50;2188694;81;21534;-61
2022/03/29 06:45:23;;;;;;;36.88;15.05;;;;;;;8.65;64.43;98259.55;2188854;81;20933;-61
2022/03/29 06:48:25;;;;;;;33.88;14.18;;;;;;;8.55;64.65;98276.71;2188642;81;21027;-61
2022/03/29 06:51:27;;;;;;;33.65;15.48;;;;;;;8.60;64.73;98265.52;2189106;81;21004;-61
2022/03/29 06:54:30;;;;;;;;;;;;;;;8.58;64.61;98264.31;2191702;81;21472;-62
2022/03/29 06:57:32;;;;;;;37.33;14.95;;;;;;;8.90;64.36;98262.76;2188766;81;20124;-62
2022/03/29 07:00:35;;;;;;;35.28;16.30;;;;;;;9.13;64.31;98267.01;2188931;81;21008;-62
2022/03/29 07:03:37;;;;;;;36.88;15.65;;;;;;;9.32;63.01;98258.80;2188698;81;21043;-62
2022/03/29 07:06:38;;;;;;;33.63;15.80;;;;;;;9.40;62.31;98253.09;2188907;81;21487;-62
2022/03/29 07:12:43;;;;;;;34.90;15.40;;;;;;;9.44;63.12;98254.09;2172039;81;20976;-61
2022/03/29 07:15:45;;;;;;;37.40;16.42;;;;;;;9.49;61.95;98260.33;2188986;81;21519;-62
2022/03/29 07:18:47;;;;;;;36.48;16.50;;;;;;;9.65;62.12;98253.61;2171975;82;21469;-62
2022/03/29 07:21:49;;;;;;;;;;;;;;;9.72;61.60;98256.19;2174762;82;21059;-62
2022/03/29 07:24:51;;;;;;;30.70;14.05;;;;;;;9.84;60.85;98250.59;2172331;81;20124;-61
2022/03/29 07:27:53;;;;;;;31.68;14.07;;;;;;;9.91;61.86;98260.20;2172076;81;21024;-62
2022/03/29 07:30:57;;;;;;;35.25;13.90;;;;;;;10.15;60.77;98241.50;2172295;81;21068;-61
2022/03/29 07:33:58;;;;;;;30.55;14.28;;;;;;;10.39;59.72;98246.03;2161676;82;20989;-61
2022/03/29 07:37:02;;;;;;;28.98;14.38;;;;;;;10.52;59.85;98236.36;2172374;81;21540;-62
2022/03/29 07:40:03;;;;;;;32.25;13.50;;;;;;;10.49;58.72;98239.69;2172577;81;20953;-61
2022/03/29 07:43:05;;;;;;;31.57;13.15;;;;;;;10.54;59.12;98241.49;2172253;81;20985;-61
2022/03/29 07:46:06;;;;;;;28.87;11.63;;;;;;;10.53;57.51;98247.67;2172394;81;21568;-62
2022/03/29 07:49:08;;;;;;;33.65;13.18;;;;;;;10.53;57.55;98244.60;2172242;81;21100;-62
2022/03/29 07:52:10;;;;;;;29.72;13.48;;;;;;;10.53;57.25;98243.74;2172590;81;20989;-62
2022/03/29 07:55:11;;;;;;;30.32;12.35;;;;;;;10.39;57.66;98252.11;2172218;81;21163;-62
2022/03/29 07:58:13;;;;;;;29.77;12.95;;;;;;;10.38;57.68;98241.25;2172296;81;21551;-61
2022/03/29 08:01:14;;;;;;;27.17;11.53;;;;;;;10.31;58.51;98233.89;2172039;81;21068;-61
2022/03/29 08:04:15;;;;;;;26.33;10.93;;;;;;;10.29;57.66;98233.17;2172073;81;21516;-61
2022/03/29 08:07:17;;;;;;;33.48;13.08;;;;;;;10.28;58.36;98248.53;2171792;81;21078;-61
2022/03/29 08:10:18;;;;;;;29.37;12.73;;;;;;;10.45;59.36;98227.73;2172171;81;21053;-61
2022/03/29 08:13:22;;;;;;;28.50;12.03;;;;;;;10.69;58.46;98231.73;2172321;81;21017;-61
2022/03/29 08:16:23;;;;;;;27.42;11.45;;;;;;;10.73;56.23;98228.77;2161607;82;21079;-62
2022/03/29 08:19:26;;;;;;;27.17;11.85;;;;;;;10.51;57.09;98242.54;2158173;81;21108;-62
2022/03/29 08:22:27;;;;;;;27.42;12.13;;;;;;;10.62;57.60;98250.98;2091953;85;21011;-61
2022/03/29 08:25:29;;;;;;;28.67;12.40;;;;;;;10.73;57.14;98233.16;2077025;86;21107;-62
2022/03/29 08:28:31;;;;;;;27.67;11.57;;;;;;;10.78;57.52;98236.79;2092010;85;20995;-62
2022/03/29 08:31:32;;;;;;;27.40;12.18;;;;;;;10.94;57.27;98237.36;2092030;85;21007;-62
2022/03/29 08:34:33;;;;;;;29.07;12.60;;;;;;;11.12;56.32;98230.41;2092235;85;20987;-61
2022/03/29 08:37:35;;;;;;;27.35;11.95;;;;;;;11.26;55.39;98245.53;2091995;85;20999;-61
2022/03/29 08:40:36;;;;;;;30.88;12.40;;;;;;;11.39;56.17;98220.98;2092024;85;21478;-62
2022/03/29 08:43:38;;;;;;;26.93;11.43;;;;;;;11.44;54.41;98235.45;2077031;86;21056;-62
2022/03/29 08:46:41;;;;;;;28.27;12.13;;;;;;;11.57;54.14;98237.18;2091968;85;20979;-62
2022/03/29 08:49:42;;;;;;;28.95;12.65;;;;;;;11.66;53.65;98233.02;2076830;86;20980;-61
2022/03/29 08:52:44;;;;;;;25.85;11.08;;;;;;;11.89;54.28;98216.84;2092092;85;21613;-62
2022/03/29 08:55:46;;;;;;;26.37;11.43;;;;;;;11.92;52.42;98235.84;2076946;86;21061;-61
2022/03/29 08:58:47;;;;;;;26.82;11.60;;;;;;;12.02;52.76;98233.85;2091988;85;21498;-61
2022/03/29 09:01:49;;;;;;;25.73;11.37;;;;;;;12.35;51.80;98204.59;2077026;86;21031;-62
2022/03/29 09:04:50;;;;;;;26.30;10.53;;;;;;;12.31;50.66;98200.04;2092025;85;21446;-62
2022/03/29 09:07:53;;;;;;;26.25;10.38;;;;;;;12.36;50.32;98201.84;2076737;86;21603;-62
2022/03/29 09:10:54;;;;;;;26.45;11.45;;;;;;;12.58;49.19;98202.78;2091986;85;21034;-62
2022/03/29 09:13:56;;;;;;;28.35;11.90;;;;;;;12.57;50.21;98187.49;2076926;86;21071;-62
2022/03/29 09:16:57;;;;;;;27.03;11.30;;;;;;;12.62;49.26;98206.36;2092051;85;21038;-62
2022/03/29 09:19:59;;;;;;;27.82;11.05;;;;;;;12.84;48.93;98187.54;2095757;83;21034;-62
2022/03/29 09:23:01;;;;;;;24.92;11.25;;;;;;;13.05;47.60;98196.00;2127588;83;21013;-62
2022/03/29 09:26:03;;;;;;;27.73;11.30;;;;;;;12.89;48.11;98193.77;2127494;83;20988;-62
2022/03/29 09:29:04;;;;;;;25.82;11.12;;;;;;;12.76;48.23;98205.27;2127498;84;21017;-62
2022/03/29 09:32:06;;;;;;;26.30;11.03;;;;;;;12.90;47.07;98191.48;2127403;83;21057;-62
2022/03/29 09:35:12;;;;;;;25.45;11.15;;;;;;;13.02;47.33;98186.55;2127510;84;21004;-62
2022/03/29 09:38:11;;;;;;;24.55;10.43;;;;;;;12.99;48.03;98172.32;2099448;84;20957;-62
2022/03/29 09:41:12;;;;;;;25.73;10.63;;;;;;;12.97;48.16;98176.40;2127489;83;20989;-62
2022/03/29 09:44:19;;;;;;;26.07;11.33;;;;;;;13.22;46.63;98186.73;2127432;84;21152;-62
2022/03/29 09:47:20;;;;;;;23.85;9.93;;;;;;;13.18;47.07;98171.16;2099571;84;21461;-62
2022/03/29 09:50:20;;;;;;;27.17;11.10;;;;;;;13.35;45.46;98166.34;2100195;84;21444;-62
2022/03/29 09:53:22;;;;;;;27.80;11.77;;;;;;;13.41;46.50;98170.27;2127644;84;21032;-62
2022/03/29 09:56:25;;;;;;;29.57;11.67;;;;;;;13.68;46.69;98172.39;2127661;83;21596;-62
2022/03/29 09:59:26;;;;;;;28.62;12.00;;;;;;;13.89;45.52;98163.13;2099476;84;21519;-62
2022/03/29 10:02:28;;;;;;;25.87;11.73;;;;;;;14.10;45.10;98168.38;2127540;83;21020;-62
2022/03/29 10:05:30;;;;;;;27.40;12.60;;;;;;;14.06;45.37;98145.05;2127149;84;21127;-62
2022/03/29 10:11:35;;;;;;;27.05;12.00;;;;;;;14.37;44.99;98148.50;2099565;84;21052;-62
2022/03/29 10:14:38;;;;;;;29.07;12.30;;;;;;;14.32;45.79;98144.09;2127448;83;21057;-62
2022/03/29 10:17:39;;;;;;;29.42;13.13;;;;;;;14.32;44.81;98138.81;2127290;84;21048;-62
2022/03/29 10:20:41;;;;;;;28.40;13.25;;;;;;;14.42;44.22;98148.91;2127364;83;21624;-62
2022/03/29 10:23:42;;;;;;;27.80;13.40;;;;;;;14.38;44.83;98142.26;2127501;84;21032;-62
2022/03/29 10:26:44;;;;;;;25.27;11.67;;;;;;;14.69;44.35;98130.33;2127512;83;21495;-62
2022/03/29 10:29:45;;;;;;;26.40;11.78;;;;;;;14.60;43.35;98134.59;2127478;83;21065;-62
2022/03/29 10:32:47;;;;;;;26.33;12.23;;;;;;;14.30;43.41;98140.77;2127643;83;21080;-62
2022/03/29 10:35:48;;;;;;;29.00;13.67;;;;;;;14.06;44.33;98134.00;2127835;83;20993;-62
2022/03/29 10:38:51;;;;;;;29.70;12.70;;;;;;;13.99;44.80;98136.35;2127289;84;21100;-62
2022/03/29 10:41:53;;;;;;;28.30;13.20;;;;;;;13.98;44.36;98119.35;2127341;84;21508;-62
2022/03/29 10:44:55;;;;;;;32.10;12.90;;;;;;;14.01;45.21;98113.81;2127503;83;21001;-62
2022/03/29 10:47:56;;;;;;;28.13;12.80;;;;;;;13.92;44.34;98112.80;2127488;83;21044;-62
2022/03/29 10:50:58;;;;;;;29.42;12.30;;;;;;;14.20;44.33;98111.72;2127524;83;21032;-62
2022/03/29 10:54:00;;;;;;;27.40;12.68;;;;;;;14.65;43.92;98104.71;2127412;84;21016;-62
2022/03/29 10:57:01;;;;;;;24.32;9.90;;;;;;;14.67;42.54;98120.41;2127188;83;21101;-62
2022/03/29 11:00:05;;;;;;;25.70;11.30;;;;;;;14.58;41.41;98107.48;2127472;84;20990;-62
2022/03/29 11:03:06;;;;;;;27.75;12.13;;;;;;;14.31;42.36;98110.30;2099583;84;20981;-62
2022/03/29 11:06:08;;;;;;;26.07;10.80;;;;;;;14.21;42.54;98097.57;2126972;83;21148;-62
2022/03/29 11:09:12;;;;;;;26.33;11.12;;;;;;;14.17;42.31;98102.77;2099562;84;21555;-62
2022/03/29 11:12:13;;;;;;;24.07;10.17;;;;;;;14.45;42.54;98101.64;2127647;83;21366;-62
2022/03/29 11:15:15;;;;;;;25.40;11.27;;;;;;;14.50;40.43;98106.86;2127729;83;21023;-62
2022/03/29 11:18:17;;;;;;;24.20;10.18;;;;;;;14.27;41.50;98098.84;2127608;84;21523;-62
2022/03/29 11:21:18;;;;;;;28.47;11.65;;;;;;;14.03;42.36;98092.91;2127530;83;21059;-62
2022/03/29 11:24:20;;;;;;;25.90;10.73;;;;;;;13.94;42.80;98096.36;2127631;83;21004;-62
2022/03/29 11:27:22;;;;;;;26.43;11.97;;;;;;;14.05;43.68;98086.21;2127750;83;21433;-62
2022/03/29 11:30:24;;;;;;;26.68;11.83;;;;;;;14.08;42.93;98085.94;2127562;83;21064;-62
2022/03/29 11:33:25;;;;;;;27.40;11.40;;;;;;;14.12;43.80;98086.49;2127400;83;21611;-62
2022/03/29 11:36:27;;;;;;;31.40;12.87;;;;;;;14.27;42.94;98084.33;2127530;84;20949;-62
2022/03/29 11:39:30;;;;;;;30.30;13.10;;;;;;;14.46;43.77;98078.25;2127564;84;21571;-62
2022/03/29 11:42:31;;;;;;;27.80;12.40;;;;;;;14.41;43.41;98080.45;2127271;84;21082;-62
2022/03/29 11:45:35;;;;;;;26.23;12.30;;;;;;;14.41;44.44;98073.39;2127772;83;21491;-62
2022/03/29 11:48:37;;;;;;;27.70;12.43;;;;;;;14.33;44.27;98070.59;2099552;84;20993;-62
2022/03/29 11:51:38;;;;;;;27.45;12.33;;;;;;;14.22;43.63;98067.56;2127303;83;21004;-62
2022/03/29 11:54:40;;;;;;;29.90;12.50;;;;;;;13.85;44.11;98059.77;2127674;83;21008;-62
2022/03/29 11:57:41;;;;;;;28.17;12.73;;;;;;;13.68;44.24;98063.03;2127569;83;20996;-62
2022/03/29 12:00:42;;;;;;;29.17;13.87;;;;;;;13.62;45.05;98067.02;2127697;83;21051;-62
2022/03/29 12:03:44;;;;;;;34.53;13.57;;;;;;;13.51;45.10;98067.92;2127561;83;21054;-62
2022/03/29 12:06:45;;;;;;;29.30;13.00;;;;;;;13.46;45.07;98054.33;2127420;84;21508;-62
2022/03/29 12:09:47;;;;;;;28.10;13.47;;;;;;;13.43;45.55;98073.03;2127547;83;21226;-62
2022/03/29 12:12:48;;;;;;;29.67;13.80;;;;;;;13.29;45.57;98068.89;2127294;83;20973;-62
2022/03/29 12:15:52;;;;;;;29.52;13.15;;;;;;;13.15;45.79;98054.73;2127215;83;21548;-62
2022/03/29 12:18:53;;;;;;;30.52;14.15;;;;;;;13.25;46.51;98058.26;2127288;84;21045;-62
2022/03/29 12:21:56;;;;;;;30.60;14.00;;;;;;;13.33;46.10;98061.55;2133261;83;21567;-62
2022/03/29 12:24:57;;;;;;;29.15;13.90;;;;;;;13.44;46.41;98065.46;2134213;83;21072;-62
2022/03/29 12:27:59;;;;;;;29.37;13.20;;;;;;;13.58;45.68;98051.13;2134414;83;21151;-62
2022/03/29 12:31:01;;;;;;;30.25;13.65;;;;;;;13.58;46.11;98052.44;2134158;83;21088;-62
2022/03/29 12:34:02;;;;;;;29.83;13.63;;;;;;;13.54;45.83;98040.49;2134416;83;21600;-62
2022/03/29 12:37:04;;;;;;;29.67;14.07;;;;;;;13.25;46.46;98039.83;2134550;83;21053;-62
2022/03/29 12:40:09;;;;;;;28.27;13.35;;;;;;;13.20;46.88;98040.68;2134265;83;21057;-62
2022/03/29 12:43:09;;;;;;;29.35;14.10;;;;;;;13.16;47.16;98035.34;2107985;83;21032;-62
2022/03/29 12:46:10;;;;;;;31.53;14.83;;;;;;;12.95;47.73;98036.66;2134504;83;20988;-62
2022/03/29 12:49:12;;;;;;;30.97;14.10;;;;;;;12.89;47.49;98030.59;2134271;83;21091;-62
2022/03/29 12:52:13;;;;;;;32.43;14.80;;;;;;;12.81;48.16;98046.55;2134488;83;21068;-62
2022/03/29 12:55:16;;;;;;;31.55;15.35;;;;;;;12.55;48.23;98038.14;2134404;83;21097;-62
2022/03/29 12:58:18;;;;;;;31.93;14.90;;;;;;;12.15;52.24;98043.16;2134124;83;21052;-62
2022/03/29 13:01:19;;;;;;;29.72;14.13;;;;;;;11.81;52.46;98043.16;2134618;83;21607;-62
2022/03/29 13:04:21;;;;;;;31.27;13.88;;;;;;;11.55;53.16;98037.69;2134192;83;21101;-62
2022/03/29 13:07:22;;;;;;;32.40;13.98;;;;;;;11.30;53.51;98042.67;2134216;83;21580;-62
2022/03/29 13:10:26;;;;;;;29.03;11.40;;;;;;;11.14;55.99;98033.81;2134630;83;21069;-62
2022/03/29 13:13:29;;;;;;;28.23;12.13;;;;;;;10.99;54.26;98042.84;2108125;83;20965;-62
2022/03/29 13:16:30;;;;;;;31.52;13.32;;;;;;;10.82;54.51;98058.07;2134220;83;21056;-62
2022/03/29 13:19:32;;;;;;;32.42;13.53;;;;;;;10.72;57.24;98042.17;2134423;83;21067;-61
2022/03/29 13:22:34;;;;;;;30.97;13.53;;;;;;;10.59;58.42;98046.66;2134419;83;21140;-62
2022/03/29 13:25:35;;;;;;;29.80;13.40;;;;;;;10.56;58.28;98038.53;2134473;83;21128;-62
2022/03/29 13:28:37;;;;;;;31.17;14.17;;;;;;;10.52;60.29;98036.25;2134792;83;21558;-62
2022/03/29 13:31:38;;;;;;;31.83;13.93;;;;;;;10.75;59.60;98037.18;2134535;83;21813;-62
2022/03/29 13:34:42;;;;;;;31.97;13.67;;;;;;;10.89;59.04;98021.73;2134553;83;21551;-62
2022/03/29 13:37:43;;;;;;;31.27;13.10;;;;;;;11.04;58.44;98010.55;2108575;83;21503;-62
2022/03/29 13:40:45;;;;;;;28.30;12.93;;;;;;;11.24;57.70;98012.47;2134546;83;21056;-62
2022/03/29 13:43:47;;;;;;;30.72;14.05;;;;;;;11.42;57.42;98002.81;2134647;83;21487;-62
2022/03/29 13:46:48;;;;;;;30.33;14.30;;;;;;;11.54;57.02;97996.62;2134508;83;21065;-62
2022/03/29 13:49:49;;;;;;;31.87;14.43;;;;;;;11.56;57.18;97989.92;2134797;83;21539;-62
2022/03/29 13:52:51;;;;;;;31.23;14.07;;;;;;;11.78;56.20;97993.03;2134466;83;21132;-62
2022/03/29 13:55:52;;;;;;;30.95;13.78;;;;;;;11.94;55.46;97980.85;2134366;83;21065;-61
2022/03/29 13:58:54;;;;;;;31.33;14.30;;;;;;;12.08;54.95;97979.27;2134447;83;21121;-62
2022/03/29 14:01:55;;;;;;;29.57;13.30;;;;;;;12.25;55.29;97978.36;2134509;83;21267;-62
2022/03/29 14:04:57;;;;;;;29.12;12.78;;;;;;;12.28;53.01;97968.44;2134779;83;20996;-62
2022/03/29 14:07:58;;;;;;;29.23;13.05;;;;;;;12.02;52.89;97971.03;2134496;83;21096;-62
2022/03/29 14:11:00;;;;;;;30.72;12.93;;;;;;;11.82;53.32;97973.91;2134651;83;21512;-62